sensor_id;sensor_type;location;lat;lon;timestamp;P1;durP1;ratioP1;P2;durP2;ratioP2
16660;SDS011;8444;52.012;5.048;2023-10-09T00:00:15;44.10;;;25.17;;
16660;SDS011;8444;52.012;5.048;2023-10-09T00:02:59;38.97;;;24.25;;
16660;SDS011;8444;52.012;5.048;2023-10-09T00:05:26;41.60;;;24.58;;
16660;SDS011;8444;52.012;5.048;2023-10-09T00:07:57;47.03;;;24.02;;
16660;SDS011;8444;52.012;5.048;2023-10-09T00:10:23;40.20;;;24.63;;
16660;SDS011;8444;52.012;5.048;2023-10-09T00:12:50;41.50;;;23.48;;
16660;SDS011;8444;52.012;5.048;2023-10-09T00:15:15;42.65;;;24.50;;
16660;SDS011;8444;52.012;5.048;2023-10-09T00:17:43;42.85;;;24.13;;
16660;SDS011;8444;52.012;5.048;2023-10-09T00:20:11;41.50;;;23.88;;
16660;SDS011;8444;52.012;5.048;2023-10-09T00:22:45;37.42;;;23.85;;
16660;SDS011;8444;52.012;5.048;2023-10-09T00:25:11;33.50;;;22.27;;
16660;SDS011;8444;52.012;5.048;2023-10-09T00:27:40;38.22;;;21.10;;
16660;SDS011;8444;52.012;5.048;2023-10-09T00:30:12;38.58;;;22.05;;
16660;SDS011;8444;52.012;5.048;2023-10-09T00:32:43;36.00;;;20.65;;
16660;SDS011;8444;52.012;5.048;2023-10-09T00:35:26;30.05;;;20.10;;
16660;SDS011;8444;52.012;5.048;2023-10-09T00:38:01;32.40;;;20.17;;
16660;SDS011;8444;52.012;5.048;2023-10-09T00:40:33;31.90;;;20.75;;
16660;SDS011;8444;52.012;5.048;2023-10-09T00:43:00;28.95;;;18.08;;
16660;SDS011;8444;52.012;5.048;2023-10-09T00:45:31;32.58;;;18.98;;
16660;SDS011;8444;52.012;5.048;2023-10-09T00:47:57;28.95;;;18.35;;
16660;SDS011;8444;52.012;5.048;2023-10-09T00:50:24;26.83;;;17.85;;
16660;SDS011;8444;52.012;5.048;2023-10-09T00:52:52;28.67;;;17.98;;
16660;SDS011;8444;52.012;5.048;2023-10-09T00:55:26;25.88;;;17.20;;
16660;SDS011;8444;52.012;5.048;2023-10-09T00:58:03;23.80;;;15.40;;
16660;SDS011;8444;52.012;5.048;2023-10-09T01:00:34;29.25;;;17.65;;
16660;SDS011;8444;52.012;5.048;2023-10-09T01:03:09;24.13;;;16.30;;
16660;SDS011;8444;52.012;5.048;2023-10-09T01:08:17;26.52;;;16.25;;
16660;SDS011;8444;52.012;5.048;2023-10-09T01:10:50;23.42;;;15.30;;
16660;SDS011;8444;52.012;5.048;2023-10-09T01:13:21;27.52;;;16.15;;
16660;SDS011;8444;52.012;5.048;2023-10-09T01:15:52;24.45;;;14.23;;
16660;SDS011;8444;52.012;5.048;2023-10-09T01:18:24;20.63;;;14.20;;
16660;SDS011;8444;52.012;5.048;2023-10-09T01:20:57;22.23;;;12.93;;
16660;SDS011;8444;52.012;5.048;2023-10-09T01:23:22;21.30;;;13.65;;
16660;SDS011;8444;52.012;5.048;2023-10-09T01:25:48;23.55;;;12.75;;
16660;SDS011;8444;52.012;5.048;2023-10-09T01:28:15;18.67;;;12.45;;
16660;SDS011;8444;52.012;5.048;2023-10-09T01:30:41;18.92;;;12.48;;
16660;SDS011;8444;52.012;5.048;2023-10-09T01:33:07;22.60;;;13.18;;
16660;SDS011;8444;52.012;5.048;2023-10-09T01:35:42;18.55;;;12.20;;
16660;SDS011;8444;52.012;5.048;2023-10-09T01:38:13;21.15;;;11.43;;
16660;SDS011;8444;52.012;5.048;2023-10-09T01:40:40;16.88;;;10.75;;
16660;SDS011;8444;52.012;5.048;2023-10-09T01:43:05;15.93;;;10.95;;
16660;SDS011;8444;52.012;5.048;2023-10-09T01:45:35;21.50;;;11.98;;
16660;SDS011;8444;52.012;5.048;2023-10-09T01:48:07;16.05;;;11.13;;
16660;SDS011;8444;52.012;5.048;2023-10-09T01:50:33;18.48;;;11.30;;
16660;SDS011;8444;52.012;5.048;2023-10-09T01:53:00;16.75;;;10.73;;
16660;SDS011;8444;52.012;5.048;2023-10-09T01:55:31;16.92;;;10.85;;
16660;SDS011;8444;52.012;5.048;2023-10-09T01:58:06;16.15;;;11.15;;
16660;SDS011;8444;52.012;5.048;2023-10-09T02:00:41;17.40;;;10.82;;
16660;SDS011;8444;52.012;5.048;2023-10-09T02:03:09;19.63;;;11.52;;
16660;SDS011;8444;52.012;5.048;2023-10-09T02:05:38;18.25;;;11.52;;
16660;SDS011;8444;52.012;5.048;2023-10-09T02:08:04;18.85;;;10.35;;
16660;SDS011;8444;52.012;5.048;2023-10-09T02:10:31;17.80;;;9.93;;
16660;SDS011;8444;52.012;5.048;2023-10-09T02:12:57;15.77;;;10.73;;
16660;SDS011;8444;52.012;5.048;2023-10-09T02:15:23;13.15;;;10.15;;
16660;SDS011;8444;52.012;5.048;2023-10-09T02:18:09;18.35;;;11.27;;
16660;SDS011;8444;52.012;5.048;2023-10-09T02:20:46;16.67;;;11.25;;
16660;SDS011;8444;52.012;5.048;2023-10-09T02:23:13;19.90;;;12.27;;
16660;SDS011;8444;52.012;5.048;2023-10-09T02:25:41;17.73;;;11.75;;
16660;SDS011;8444;52.012;5.048;2023-10-09T02:28:09;20.20;;;12.05;;
16660;SDS011;8444;52.012;5.048;2023-10-09T02:30:42;17.48;;;11.65;;
16660;SDS011;8444;52.012;5.048;2023-10-09T02:33:07;24.50;;;13.15;;
16660;SDS011;8444;52.012;5.048;2023-10-09T02:35:34;19.33;;;11.27;;
16660;SDS011;8444;52.012;5.048;2023-10-09T02:38:07;19.95;;;11.10;;
16660;SDS011;8444;52.012;5.048;2023-10-09T02:40:39;18.25;;;11.20;;
16660;SDS011;8444;52.012;5.048;2023-10-09T02:43:07;17.27;;;11.02;;
16660;SDS011;8444;52.012;5.048;2023-10-09T02:45:37;19.55;;;10.80;;
16660;SDS011;8444;52.012;5.048;2023-10-09T02:48:15;18.27;;;11.13;;
16660;SDS011;8444;52.012;5.048;2023-10-09T02:50:40;16.30;;;11.52;;
16660;SDS011;8444;52.012;5.048;2023-10-09T02:53:09;19.85;;;12.48;;
16660;SDS011;8444;52.012;5.048;2023-10-09T02:55:43;22.92;;;11.07;;
16660;SDS011;8444;52.012;5.048;2023-10-09T02:58:18;15.38;;;10.00;;
16660;SDS011;8444;52.012;5.048;2023-10-09T03:00:46;24.83;;;11.65;;
16660;SDS011;8444;52.012;5.048;2023-10-09T03:03:12;19.30;;;11.68;;
16660;SDS011;8444;52.012;5.048;2023-10-09T03:05:41;22.90;;;12.68;;
16660;SDS011;8444;52.012;5.048;2023-10-09T03:08:08;17.85;;;9.98;;
16660;SDS011;8444;52.012;5.048;2023-10-09T03:10:37;20.13;;;10.52;;
16660;SDS011;8444;52.012;5.048;2023-10-09T03:13:03;18.95;;;11.15;;
16660;SDS011;8444;52.012;5.048;2023-10-09T03:15:30;22.25;;;10.75;;
16660;SDS011;8444;52.012;5.048;2023-10-09T03:18:00;17.83;;;10.88;;
16660;SDS011;8444;52.012;5.048;2023-10-09T03:20:25;16.58;;;10.50;;
16660;SDS011;8444;52.012;5.048;2023-10-09T03:22:51;17.88;;;10.85;;
16660;SDS011;8444;52.012;5.048;2023-10-09T03:25:19;17.05;;;11.07;;
16660;SDS011;8444;52.012;5.048;2023-10-09T03:27:44;16.65;;;11.80;;
16660;SDS011;8444;52.012;5.048;2023-10-09T03:30:13;25.13;;;12.10;;
16660;SDS011;8444;52.012;5.048;2023-10-09T03:32:42;17.10;;;10.70;;
16660;SDS011;8444;52.012;5.048;2023-10-09T03:35:07;19.88;;;11.20;;
16660;SDS011;8444;52.012;5.048;2023-10-09T03:37:34;16.35;;;9.48;;
16660;SDS011;8444;52.012;5.048;2023-10-09T03:40:00;16.60;;;10.32;;
16660;SDS011;8444;52.012;5.048;2023-10-09T03:42:25;18.23;;;10.35;;
16660;SDS011;8444;52.012;5.048;2023-10-09T03:44:51;15.27;;;10.38;;
16660;SDS011;8444;52.012;5.048;2023-10-09T03:47:22;15.70;;;10.07;;
16660;SDS011;8444;52.012;5.048;2023-10-09T03:49:48;25.67;;;9.98;;
16660;SDS011;8444;52.012;5.048;2023-10-09T03:52:16;18.77;;;10.75;;
16660;SDS011;8444;52.012;5.048;2023-10-09T03:54:42;17.30;;;9.98;;
16660;SDS011;8444;52.012;5.048;2023-10-09T03:57:11;19.60;;;10.43;;
16660;SDS011;8444;52.012;5.048;2023-10-09T03:59:36;17.80;;;10.25;;
16660;SDS011;8444;52.012;5.048;2023-10-09T04:02:02;16.85;;;9.30;;
16660;SDS011;8444;52.012;5.048;2023-10-09T04:04:29;18.58;;;10.52;;
16660;SDS011;8444;52.012;5.048;2023-10-09T04:06:57;17.42;;;9.00;;
16660;SDS011;8444;52.012;5.048;2023-10-09T04:09:22;16.80;;;9.27;;
16660;SDS011;8444;52.012;5.048;2023-10-09T04:11:51;19.70;;;9.82;;
16660;SDS011;8444;52.012;5.048;2023-10-09T04:14:25;15.60;;;9.80;;
16660;SDS011;8444;52.012;5.048;2023-10-09T04:17:00;18.17;;;9.13;;
16660;SDS011;8444;52.012;5.048;2023-10-09T04:19:51;17.63;;;10.30;;
16660;SDS011;8444;52.012;5.048;2023-10-09T04:22:38;17.38;;;10.18;;
16660;SDS011;8444;52.012;5.048;2023-10-09T04:25:25;14.90;;;9.50;;
16660;SDS011;8444;52.012;5.048;2023-10-09T04:28:09;14.98;;;8.70;;
16660;SDS011;8444;52.012;5.048;2023-10-09T04:30:35;12.25;;;9.55;;
16660;SDS011;8444;52.012;5.048;2023-10-09T04:33:05;18.80;;;8.93;;
16660;SDS011;8444;52.012;5.048;2023-10-09T04:35:36;18.20;;;10.25;;
16660;SDS011;8444;52.012;5.048;2023-10-09T04:38:03;14.00;;;8.70;;
16660;SDS011;8444;52.012;5.048;2023-10-09T04:40:31;14.98;;;9.20;;
16660;SDS011;8444;52.012;5.048;2023-10-09T04:43:11;16.42;;;9.32;;
16660;SDS011;8444;52.012;5.048;2023-10-09T04:45:45;14.38;;;8.57;;
16660;SDS011;8444;52.012;5.048;2023-10-09T04:48:28;14.88;;;9.82;;
16660;SDS011;8444;52.012;5.048;2023-10-09T04:51:06;18.83;;;9.25;;
16660;SDS011;8444;52.012;5.048;2023-10-09T04:53:59;13.45;;;9.85;;
16660;SDS011;8444;52.012;5.048;2023-10-09T04:56:40;19.65;;;9.85;;
16660;SDS011;8444;52.012;5.048;2023-10-09T04:59:19;20.85;;;9.70;;
16660;SDS011;8444;52.012;5.048;2023-10-09T05:01:49;15.45;;;10.55;;
16660;SDS011;8444;52.012;5.048;2023-10-09T05:04:22;16.38;;;9.95;;
16660;SDS011;8444;52.012;5.048;2023-10-09T05:07:02;12.00;;;9.07;;
16660;SDS011;8444;52.012;5.048;2023-10-09T05:09:48;14.80;;;9.15;;
16660;SDS011;8444;52.012;5.048;2023-10-09T05:12:33;16.35;;;9.25;;
16660;SDS011;8444;52.012;5.048;2023-10-09T05:14:58;15.25;;;9.48;;
16660;SDS011;8444;52.012;5.048;2023-10-09T05:17:38;14.10;;;9.18;;
16660;SDS011;8444;52.012;5.048;2023-10-09T05:20:04;16.67;;;9.10;;
16660;SDS011;8444;52.012;5.048;2023-10-09T05:22:48;19.33;;;9.68;;
16660;SDS011;8444;52.012;5.048;2023-10-09T05:25:22;12.90;;;8.23;;
16660;SDS011;8444;52.012;5.048;2023-10-09T05:28:08;17.35;;;9.15;;
16660;SDS011;8444;52.012;5.048;2023-10-09T05:30:54;20.92;;;9.25;;
16660;SDS011;8444;52.012;5.048;2023-10-09T05:33:41;15.82;;;9.65;;
16660;SDS011;8444;52.012;5.048;2023-10-09T05:36:10;19.63;;;10.23;;
16660;SDS011;8444;52.012;5.048;2023-10-09T05:38:50;12.43;;;8.73;;
16660;SDS011;8444;52.012;5.048;2023-10-09T05:41:43;15.73;;;9.25;;
16660;SDS011;8444;52.012;5.048;2023-10-09T05:44:24;16.23;;;8.98;;
16660;SDS011;8444;52.012;5.048;2023-10-09T05:47:08;15.50;;;9.20;;
16660;SDS011;8444;52.012;5.048;2023-10-09T05:49:52;14.18;;;8.93;;
16660;SDS011;8444;52.012;5.048;2023-10-09T05:52:40;15.82;;;9.13;;
16660;SDS011;8444;52.012;5.048;2023-10-09T05:55:05;15.32;;;9.80;;
16660;SDS011;8444;52.012;5.048;2023-10-09T05:57:52;13.45;;;9.13;;
16660;SDS011;8444;52.012;5.048;2023-10-09T06:00:20;14.32;;;8.25;;
16660;SDS011;8444;52.012;5.048;2023-10-09T06:03:04;15.32;;;9.15;;
16660;SDS011;8444;52.012;5.048;2023-10-09T06:06:02;16.52;;;9.20;;
16660;SDS011;8444;52.012;5.048;2023-10-09T06:08:29;16.77;;;9.07;;
16660;SDS011;8444;52.012;5.048;2023-10-09T06:11:03;14.77;;;8.85;;
16660;SDS011;8444;52.012;5.048;2023-10-09T06:13:52;12.73;;;8.63;;
16660;SDS011;8444;52.012;5.048;2023-10-09T06:16:29;10.98;;;8.63;;
16660;SDS011;8444;52.012;5.048;2023-10-09T06:19:12;19.33;;;9.50;;
16660;SDS011;8444;52.012;5.048;2023-10-09T06:21:41;15.13;;;8.73;;
16660;SDS011;8444;52.012;5.048;2023-10-09T06:24:25;14.43;;;8.55;;
16660;SDS011;8444;52.012;5.048;2023-10-09T06:27:10;15.55;;;8.50;;
16660;SDS011;8444;52.012;5.048;2023-10-09T06:29:35;11.57;;;8.60;;
16660;SDS011;8444;52.012;5.048;2023-10-09T06:32:05;14.52;;;9.00;;
16660;SDS011;8444;52.012;5.048;2023-10-09T06:34:47;14.40;;;8.18;;
16660;SDS011;8444;52.012;5.048;2023-10-09T06:37:17;17.90;;;9.73;;
16660;SDS011;8444;52.012;5.048;2023-10-09T06:39:59;14.85;;;8.55;;
16660;SDS011;8444;52.012;5.048;2023-10-09T06:42:25;14.68;;;8.27;;
16660;SDS011;8444;52.012;5.048;2023-10-09T06:45:09;15.20;;;8.77;;
16660;SDS011;8444;52.012;5.048;2023-10-09T06:47:48;15.15;;;8.13;;
16660;SDS011;8444;52.012;5.048;2023-10-09T06:50:34;14.95;;;8.75;;
16660;SDS011;8444;52.012;5.048;2023-10-09T06:53:18;17.83;;;8.07;;
16660;SDS011;8444;52.012;5.048;2023-10-09T06:55:50;14.98;;;8.00;;
16660;SDS011;8444;52.012;5.048;2023-10-09T06:58:19;21.23;;;9.15;;
16660;SDS011;8444;52.012;5.048;2023-10-09T07:00:51;15.65;;;7.47;;
16660;SDS011;8444;52.012;5.048;2023-10-09T07:03:35;17.45;;;8.48;;
16660;SDS011;8444;52.012;5.048;2023-10-09T07:06:04;19.30;;;9.05;;
16660;SDS011;8444;52.012;5.048;2023-10-09T07:08:48;23.48;;;8.93;;
16660;SDS011;8444;52.012;5.048;2023-10-09T07:11:25;14.25;;;7.28;;
16660;SDS011;8444;52.012;5.048;2023-10-09T07:14:05;14.50;;;8.32;;
16660;SDS011;8444;52.012;5.048;2023-10-09T07:16:32;16.75;;;7.85;;
16660;SDS011;8444;52.012;5.048;2023-10-09T07:19:04;18.95;;;8.50;;
16660;SDS011;8444;52.012;5.048;2023-10-09T07:21:37;13.88;;;7.65;;
16660;SDS011;8444;52.012;5.048;2023-10-09T07:24:04;11.65;;;8.18;;
16660;SDS011;8444;52.012;5.048;2023-10-09T07:26:39;14.55;;;8.55;;
16660;SDS011;8444;52.012;5.048;2023-10-09T07:29:12;13.23;;;6.90;;
16660;SDS011;8444;52.012;5.048;2023-10-09T07:31:46;11.50;;;7.93;;
16660;SDS011;8444;52.012;5.048;2023-10-09T07:34:12;14.73;;;7.75;;
16660;SDS011;8444;52.012;5.048;2023-10-09T07:36:55;10.15;;;7.32;;
16660;SDS011;8444;52.012;5.048;2023-10-09T07:39:28;14.40;;;8.23;;
16660;SDS011;8444;52.012;5.048;2023-10-09T07:41:59;18.13;;;9.02;;
16660;SDS011;8444;52.012;5.048;2023-10-09T07:44:40;19.88;;;8.73;;
16660;SDS011;8444;52.012;5.048;2023-10-09T07:47:07;18.63;;;8.60;;
16660;SDS011;8444;52.012;5.048;2023-10-09T07:49:42;15.63;;;8.40;;
16660;SDS011;8444;52.012;5.048;2023-10-09T07:52:13;18.02;;;7.68;;
16660;SDS011;8444;52.012;5.048;2023-10-09T07:54:38;13.07;;;7.95;;
16660;SDS011;8444;52.012;5.048;2023-10-09T07:57:14;18.30;;;8.57;;
16660;SDS011;8444;52.012;5.048;2023-10-09T07:59:43;13.38;;;7.53;;
16660;SDS011;8444;52.012;5.048;2023-10-09T08:02:29;16.30;;;8.02;;
16660;SDS011;8444;52.012;5.048;2023-10-09T08:04:59;15.65;;;8.05;;
16660;SDS011;8444;52.012;5.048;2023-10-09T08:07:29;14.27;;;8.25;;
16660;SDS011;8444;52.012;5.048;2023-10-09T08:10:09;17.33;;;7.95;;
16660;SDS011;8444;52.012;5.048;2023-10-09T08:12:43;12.00;;;6.78;;
16660;SDS011;8444;52.012;5.048;2023-10-09T08:15:15;16.13;;;7.82;;
16660;SDS011;8444;52.012;5.048;2023-10-09T08:20:16;12.38;;;7.28;;
16660;SDS011;8444;52.012;5.048;2023-10-09T08:22:42;16.92;;;7.88;;
16660;SDS011;8444;52.012;5.048;2023-10-09T08:25:17;16.05;;;8.00;;
16660;SDS011;8444;52.012;5.048;2023-10-09T08:27:55;13.95;;;7.78;;
16660;SDS011;8444;52.012;5.048;2023-10-09T08:30:20;15.45;;;7.15;;
16660;SDS011;8444;52.012;5.048;2023-10-09T08:32:49;9.90;;;6.70;;
16660;SDS011;8444;52.012;5.048;2023-10-09T08:35:47;14.63;;;7.13;;
16660;SDS011;8444;52.012;5.048;2023-10-09T08:38:16;14.75;;;7.18;;
16660;SDS011;8444;52.012;5.048;2023-10-09T08:40:48;13.38;;;6.28;;
16660;SDS011;8444;52.012;5.048;2023-10-09T08:43:16;16.90;;;7.45;;
16660;SDS011;8444;52.012;5.048;2023-10-09T08:45:49;17.17;;;7.85;;
16660;SDS011;8444;52.012;5.048;2023-10-09T08:48:18;15.38;;;6.95;;
16660;SDS011;8444;52.012;5.048;2023-10-09T08:50:44;15.38;;;7.38;;
16660;SDS011;8444;52.012;5.048;2023-10-09T08:53:10;10.85;;;6.40;;
16660;SDS011;8444;52.012;5.048;2023-10-09T08:55:39;16.40;;;7.15;;
16660;SDS011;8444;52.012;5.048;2023-10-09T08:58:04;12.68;;;5.70;;
16660;SDS011;8444;52.012;5.048;2023-10-09T09:00:42;9.95;;;6.38;;
16660;SDS011;8444;52.012;5.048;2023-10-09T09:03:10;11.15;;;6.75;;
16660;SDS011;8444;52.012;5.048;2023-10-09T09:05:37;11.90;;;5.95;;
16660;SDS011;8444;52.012;5.048;2023-10-09T09:08:02;12.27;;;6.60;;
16660;SDS011;8444;52.012;5.048;2023-10-09T09:10:28;10.30;;;6.63;;
16660;SDS011;8444;52.012;5.048;2023-10-09T09:13:00;10.18;;;7.25;;
16660;SDS011;8444;52.012;5.048;2023-10-09T09:15:28;11.20;;;6.38;;
16660;SDS011;8444;52.012;5.048;2023-10-09T09:18:03;11.52;;;6.28;;
16660;SDS011;8444;52.012;5.048;2023-10-09T09:20:31;15.05;;;7.05;;
16660;SDS011;8444;52.012;5.048;2023-10-09T09:23:05;12.63;;;6.15;;
16660;SDS011;8444;52.012;5.048;2023-10-09T09:25:44;15.32;;;7.15;;
16660;SDS011;8444;52.012;5.048;2023-10-09T09:28:11;8.90;;;6.18;;
16660;SDS011;8444;52.012;5.048;2023-10-09T09:30:37;9.45;;;5.95;;
16660;SDS011;8444;52.012;5.048;2023-10-09T09:33:16;11.10;;;5.90;;
16660;SDS011;8444;52.012;5.048;2023-10-09T09:36:00;11.25;;;5.25;;
16660;SDS011;8444;52.012;5.048;2023-10-09T09:38:30;9.65;;;4.60;;
16660;SDS011;8444;52.012;5.048;2023-10-09T09:41:12;12.50;;;5.20;;
16660;SDS011;8444;52.012;5.048;2023-10-09T09:43:38;9.45;;;5.53;;
16660;SDS011;8444;52.012;5.048;2023-10-09T09:46:06;14.05;;;6.05;;
16660;SDS011;8444;52.012;5.048;2023-10-09T09:48:38;9.02;;;5.80;;
16660;SDS011;8444;52.012;5.048;2023-10-09T09:51:11;12.35;;;6.00;;
16660;SDS011;8444;52.012;5.048;2023-10-09T09:53:38;10.88;;;5.38;;
16660;SDS011;8444;52.012;5.048;2023-10-09T09:56:04;12.43;;;5.10;;
16660;SDS011;8444;52.012;5.048;2023-10-09T09:58:29;10.63;;;5.15;;
16660;SDS011;8444;52.012;5.048;2023-10-09T10:01:07;12.18;;;5.18;;
16660;SDS011;8444;52.012;5.048;2023-10-09T10:03:47;10.88;;;5.05;;
16660;SDS011;8444;52.012;5.048;2023-10-09T10:06:13;8.45;;;4.35;;
16660;SDS011;8444;52.012;5.048;2023-10-09T10:08:40;12.23;;;5.03;;
16660;SDS011;8444;52.012;5.048;2023-10-09T10:11:06;9.15;;;3.95;;
16660;SDS011;8444;52.012;5.048;2023-10-09T10:16:06;7.90;;;4.25;;
16660;SDS011;8444;52.012;5.048;2023-10-09T10:18:58;6.47;;;4.43;;
16660;SDS011;8444;52.012;5.048;2023-10-09T10:21:53;8.32;;;4.15;;
16660;SDS011;8444;52.012;5.048;2023-10-09T10:29:43;7.50;;;4.10;;
16660;SDS011;8444;52.012;5.048;2023-10-09T10:32:11;8.65;;;3.60;;
16660;SDS011;8444;52.012;5.048;2023-10-09T10:37:11;7.18;;;4.13;;
16660;SDS011;8444;52.012;5.048;2023-10-09T10:39:49;8.02;;;4.60;;
16660;SDS011;8444;52.012;5.048;2023-10-09T10:42:14;10.43;;;4.32;;
16660;SDS011;8444;52.012;5.048;2023-10-09T10:45:01;7.35;;;3.50;;
16660;SDS011;8444;52.012;5.048;2023-10-09T10:47:27;13.35;;;4.32;;
16660;SDS011;8444;52.012;5.048;2023-10-09T10:49:59;7.72;;;3.60;;
16660;SDS011;8444;52.012;5.048;2023-10-09T10:52:36;7.55;;;3.60;;
16660;SDS011;8444;52.012;5.048;2023-10-09T10:55:12;11.05;;;4.40;;
16660;SDS011;8444;52.012;5.048;2023-10-09T10:57:56;9.15;;;4.25;;
16660;SDS011;8444;52.012;5.048;2023-10-09T11:00:26;11.50;;;4.13;;
16660;SDS011;8444;52.012;5.048;2023-10-09T11:03:10;11.85;;;4.15;;
16660;SDS011;8444;52.012;5.048;2023-10-09T11:05:40;10.50;;;4.68;;
16660;SDS011;8444;52.012;5.048;2023-10-09T11:08:08;7.60;;;4.03;;
16660;SDS011;8444;52.012;5.048;2023-10-09T11:10:34;9.35;;;4.32;;
16660;SDS011;8444;52.012;5.048;2023-10-09T11:12:59;8.68;;;4.20;;
16660;SDS011;8444;52.012;5.048;2023-10-09T11:15:34;8.68;;;4.15;;
16660;SDS011;8444;52.012;5.048;2023-10-09T11:18:13;7.18;;;3.50;;
16660;SDS011;8444;52.012;5.048;2023-10-09T11:20:44;9.13;;;4.85;;
16660;SDS011;8444;52.012;5.048;2023-10-09T11:23:29;6.60;;;3.90;;
16660;SDS011;8444;52.012;5.048;2023-10-09T11:26:12;7.65;;;4.03;;
16660;SDS011;8444;52.012;5.048;2023-10-09T11:29:09;7.40;;;3.70;;
16660;SDS011;8444;52.012;5.048;2023-10-09T11:31:40;6.57;;;4.07;;
16660;SDS011;8444;52.012;5.048;2023-10-09T11:34:17;13.10;;;4.85;;
16660;SDS011;8444;52.012;5.048;2023-10-09T11:36:48;7.20;;;4.07;;
16660;SDS011;8444;52.012;5.048;2023-10-09T11:39:24;8.88;;;3.88;;
16660;SDS011;8444;52.012;5.048;2023-10-09T11:44:41;6.00;;;3.72;;
16660;SDS011;8444;52.012;5.048;2023-10-09T11:47:11;7.53;;;4.13;;
16660;SDS011;8444;52.012;5.048;2023-10-09T11:49:52;7.82;;;4.47;;
16660;SDS011;8444;52.012;5.048;2023-10-09T11:52:53;8.90;;;4.43;;
16660;SDS011;8444;52.012;5.048;2023-10-09T11:55:21;9.80;;;4.43;;
16660;SDS011;8444;52.012;5.048;2023-10-09T11:57:50;6.78;;;3.63;;
16660;SDS011;8444;52.012;5.048;2023-10-09T12:00:16;7.32;;;3.80;;
16660;SDS011;8444;52.012;5.048;2023-10-09T12:02:54;8.70;;;4.15;;
16660;SDS011;8444;52.012;5.048;2023-10-09T12:05:19;14.02;;;4.63;;
16660;SDS011;8444;52.012;5.048;2023-10-09T12:07:45;6.30;;;4.07;;
16660;SDS011;8444;52.012;5.048;2023-10-09T12:10:11;5.70;;;3.92;;
16660;SDS011;8444;52.012;5.048;2023-10-09T12:12:38;8.20;;;4.28;;
16660;SDS011;8444;52.012;5.048;2023-10-09T12:15:04;8.68;;;4.00;;
16660;SDS011;8444;52.012;5.048;2023-10-09T12:17:30;7.70;;;4.18;;
16660;SDS011;8444;52.012;5.048;2023-10-09T12:19:55;7.80;;;4.25;;
16660;SDS011;8444;52.012;5.048;2023-10-09T12:22:21;10.40;;;3.95;;
16660;SDS011;8444;52.012;5.048;2023-10-09T12:24:46;9.88;;;4.00;;
16660;SDS011;8444;52.012;5.048;2023-10-09T12:27:12;10.48;;;4.28;;
16660;SDS011;8444;52.012;5.048;2023-10-09T12:29:37;6.03;;;3.38;;
16660;SDS011;8444;52.012;5.048;2023-10-09T12:32:03;7.30;;;4.35;;
16660;SDS011;8444;52.012;5.048;2023-10-09T12:34:29;7.40;;;4.03;;
16660;SDS011;8444;52.012;5.048;2023-10-09T12:36:56;9.45;;;4.30;;
16660;SDS011;8444;52.012;5.048;2023-10-09T12:39:25;7.90;;;3.85;;
16660;SDS011;8444;52.012;5.048;2023-10-09T12:41:56;8.20;;;4.15;;
16660;SDS011;8444;52.012;5.048;2023-10-09T12:44:23;6.50;;;3.60;;
16660;SDS011;8444;52.012;5.048;2023-10-09T12:46:52;9.60;;;4.18;;
16660;SDS011;8444;52.012;5.048;2023-10-09T12:49:21;10.00;;;4.45;;
16660;SDS011;8444;52.012;5.048;2023-10-09T12:51:52;9.55;;;4.07;;
16660;SDS011;8444;52.012;5.048;2023-10-09T12:54:17;10.43;;;4.50;;
16660;SDS011;8444;52.012;5.048;2023-10-09T12:56:45;10.55;;;4.00;;
16660;SDS011;8444;52.012;5.048;2023-10-09T12:59:14;12.88;;;4.88;;
16660;SDS011;8444;52.012;5.048;2023-10-09T13:01:40;7.90;;;3.63;;
16660;SDS011;8444;52.012;5.048;2023-10-09T13:04:11;8.45;;;4.68;;
16660;SDS011;8444;52.012;5.048;2023-10-09T13:06:37;8.00;;;3.58;;
16660;SDS011;8444;52.012;5.048;2023-10-09T13:09:08;9.32;;;3.33;;
16660;SDS011;8444;52.012;5.048;2023-10-09T13:11:34;8.68;;;4.28;;
16660;SDS011;8444;52.012;5.048;2023-10-09T13:14:01;8.48;;;4.07;;
16660;SDS011;8444;52.012;5.048;2023-10-09T13:16:36;6.47;;;3.78;;
16660;SDS011;8444;52.012;5.048;2023-10-09T13:19:01;9.27;;;3.58;;
16660;SDS011;8444;52.012;5.048;2023-10-09T13:21:34;7.38;;;3.88;;
16660;SDS011;8444;52.012;5.048;2023-10-09T13:24:02;9.20;;;4.78;;
16660;SDS011;8444;52.012;5.048;2023-10-09T13:26:28;7.95;;;3.88;;
16660;SDS011;8444;52.012;5.048;2023-10-09T13:28:55;11.15;;;4.68;;
16660;SDS011;8444;52.012;5.048;2023-10-09T13:31:21;13.25;;;4.78;;
16660;SDS011;8444;52.012;5.048;2023-10-09T13:33:48;10.57;;;4.18;;
16660;SDS011;8444;52.012;5.048;2023-10-09T13:36:13;7.90;;;4.60;;
16660;SDS011;8444;52.012;5.048;2023-10-09T13:38:44;11.95;;;4.45;;
16660;SDS011;8444;52.012;5.048;2023-10-09T13:41:10;6.88;;;3.55;;
16660;SDS011;8444;52.012;5.048;2023-10-09T13:43:40;9.43;;;4.65;;
16660;SDS011;8444;52.012;5.048;2023-10-09T13:46:06;11.85;;;3.67;;
16660;SDS011;8444;52.012;5.048;2023-10-09T13:48:33;14.73;;;4.28;;
16660;SDS011;8444;52.012;5.048;2023-10-09T13:51:03;9.65;;;4.15;;
16660;SDS011;8444;52.012;5.048;2023-10-09T13:53:32;12.98;;;5.22;;
16660;SDS011;8444;52.012;5.048;2023-10-09T13:55:57;15.45;;;4.43;;
16660;SDS011;8444;52.012;5.048;2023-10-09T13:58:23;8.88;;;4.20;;
16660;SDS011;8444;52.012;5.048;2023-10-09T14:00:49;7.03;;;4.47;;
16660;SDS011;8444;52.012;5.048;2023-10-09T14:03:15;9.43;;;5.18;;
16660;SDS011;8444;52.012;5.048;2023-10-09T14:05:44;12.98;;;4.47;;
16660;SDS011;8444;52.012;5.048;2023-10-09T14:08:20;8.23;;;4.43;;
16660;SDS011;8444;52.012;5.048;2023-10-09T14:10:47;13.88;;;5.07;;
16660;SDS011;8444;52.012;5.048;2023-10-09T14:13:13;12.50;;;4.50;;
16660;SDS011;8444;52.012;5.048;2023-10-09T14:15:39;8.02;;;4.38;;
16660;SDS011;8444;52.012;5.048;2023-10-09T14:18:06;10.10;;;4.78;;
16660;SDS011;8444;52.012;5.048;2023-10-09T14:20:34;10.95;;;5.28;;
16660;SDS011;8444;52.012;5.048;2023-10-09T14:22:59;8.32;;;4.22;;
16660;SDS011;8444;52.012;5.048;2023-10-09T14:25:31;6.55;;;4.07;;
16660;SDS011;8444;52.012;5.048;2023-10-09T14:27:56;8.25;;;4.00;;
16660;SDS011;8444;52.012;5.048;2023-10-09T14:30:23;10.40;;;4.10;;
16660;SDS011;8444;52.012;5.048;2023-10-09T14:32:55;12.05;;;4.93;;
16660;SDS011;8444;52.012;5.048;2023-10-09T14:35:21;11.35;;;4.32;;
16660;SDS011;8444;52.012;5.048;2023-10-09T14:37:51;12.57;;;5.38;;
16660;SDS011;8444;52.012;5.048;2023-10-09T14:40:16;10.02;;;4.20;;
16660;SDS011;8444;52.012;5.048;2023-10-09T14:42:46;12.50;;;5.38;;
16660;SDS011;8444;52.012;5.048;2023-10-09T14:45:11;14.63;;;4.82;;
16660;SDS011;8444;52.012;5.048;2023-10-09T14:47:43;7.53;;;3.90;;
16660;SDS011;8444;52.012;5.048;2023-10-09T14:50:11;8.00;;;4.05;;
16660;SDS011;8444;52.012;5.048;2023-10-09T14:52:38;8.50;;;4.50;;
16660;SDS011;8444;52.012;5.048;2023-10-09T14:55:07;6.18;;;3.80;;
16660;SDS011;8444;52.012;5.048;2023-10-09T14:57:32;14.10;;;4.75;;
16660;SDS011;8444;52.012;5.048;2023-10-09T15:00:01;10.88;;;4.53;;
16660;SDS011;8444;52.012;5.048;2023-10-09T15:02:32;9.07;;;4.78;;
16660;SDS011;8444;52.012;5.048;2023-10-09T15:04:57;7.28;;;4.63;;
16660;SDS011;8444;52.012;5.048;2023-10-09T15:07:23;8.60;;;4.38;;
16660;SDS011;8444;52.012;5.048;2023-10-09T15:09:49;6.75;;;4.88;;
16660;SDS011;8444;52.012;5.048;2023-10-09T15:12:16;9.20;;;4.55;;
16660;SDS011;8444;52.012;5.048;2023-10-09T15:14:41;8.40;;;4.70;;
16660;SDS011;8444;52.012;5.048;2023-10-09T15:17:06;13.68;;;5.50;;
16660;SDS011;8444;52.012;5.048;2023-10-09T15:19:32;11.02;;;5.85;;
16660;SDS011;8444;52.012;5.048;2023-10-09T15:21:57;11.80;;;4.82;;
16660;SDS011;8444;52.012;5.048;2023-10-09T15:24:26;13.23;;;5.22;;
16660;SDS011;8444;52.012;5.048;2023-10-09T15:26:52;13.90;;;5.60;;
16660;SDS011;8444;52.012;5.048;2023-10-09T15:29:19;13.35;;;5.38;;
16660;SDS011;8444;52.012;5.048;2023-10-09T15:31:48;12.63;;;5.25;;